Search for airport 
image banner adimage banner adimage banner ad
image banner ad

5PN4 - Mahon

Located in Hatboro, United States

ICAO - 5PN4, IATA -

Data provided by Airmate  

General information

Coordinates: N40°9'16" W75°4'31"
Elevation is 235 feet MSL.
Magnetic variation is -12° East
View others Airports in Pennsylvania

Operational data

Special qualification required
Current time UTC:
Current local time:
Weather at : KPNE - Northeast Philadelphia ( 10 km )
METAR: KPNE 091454Z 00000KT 10SM OVC110 13/03 A3010 RMK AO2 SLP191 T01280033 58008 $
TAF: KPNE 091120Z 0912/1012 VRB04KT P6SM SCT250 FM092200 15006KT P6SM VCSH OVC025 FM100400 12005KT P6SM BKN045 WS020/22040KT FM101100 31008KT P6SM SCT035
View NOTAMs / SUP AIP / TFR affecting this airport [VIEW]
Communications frequencies: [VIEW]

Runways:

Airport contact information

Address: Hatboro United States

Satellite view of 5PN4